This is the latest recevied weather packets stored in our database for station/object F5TND-14. If no packets are shown the sender has not sent any weather packets the latest 10 day(s).
| Time | Temp. | Humidity | Pressure | Rain* | Wind** | Luminosity | Snow |
|---|---|---|---|---|---|---|---|
| 1787398928 | 23.33° C | 38% | 1021.2 hPa | - | - | - | - |
| 1787398328 | 23.89° C | 38% | 1021.2 hPa | - | - | - | - |
| 1787397719 | 23.33° C | 37% | 1021.2 hPa | - | - | - | - |
| 1787395920 | 23.33° C | 37% | 1021.5 hPa | - | - | - | - |
| 1787395321 | 22.78° C | 38% | 1021.5 hPa | - | - | - | - |
| 1787394719 | 22.78° C | 39% | 1021.7 hPa | - | - | - | - |
| 1787394128 | 22.78° C | 40% | 1021.8 hPa | - | - | - | - |
| 1787393519 | 22.22° C | 40% | 1021.8 hPa | - | - | - | - |
| 1787392921 | 21.67° C | 42% | 1021.8 hPa | - | - | - | - |
| 1787392320 | 21.67° C | 42% | 1021.9 hPa | - | - | - | - |
| 1787391720 | 21.67° C | 45% | 1021.8 hPa | - | - | - | - |
| 1787391120 | 22.22° C | 44% | 1021.8 hPa | - | - | - | - |
| 1787390521 | 21.67° C | 47% | 1021.8 hPa | - | - | - | - |
| 1787389920 | 21.11° C | 49% | 1021.8 hPa | - | - | - | - |
| 1787389320 | 21.11° C | 50% | 1021.8 hPa | - | - | - | - |
| 1787388719 | 20.56° C | 51% | 1021.8 hPa | - | - | - | - |
| 1787388119 | 20.56° C | 52% | 1022 hPa | - | - | - | - |
| 1787387519 | 21.11° C | 52% | 1021.9 hPa | - | - | - | - |
| 1787386919 | 20.56° C | 53% | 1021.7 hPa | - | - | - | - |
| 1787386319 | 20° C | 54% | 1021.8 hPa | - | - | - | - |
| 1787385719 | 21.67° C | 44% | 1021.8 hPa | - | - | - | - |
| 1787385118 | 21.67° C | 44% | 1021.9 hPa | - | - | - | - |
| 1787383918 | 21.67° C | 44% | 1021.8 hPa | - | - | - | - |
| 1787383318 | 21.11° C | 44% | 1021.7 hPa | - | - | - | - |
| 1787382718 | 21.11° C | 45% | 1021.6 hPa | - | - | - | - |
* Rain since midnight (hover to see other rain measurements)
** Current wind speed in m/s (hover to see current wind gust speed)